Terminal Aerodrome Forecast
Issued by NWS Omaha/Valley, NE

Home | Current Version | Previous Version | Graphics & Text | Print | Product List | Glossary On
Versions: 1 2 3 4 5 6 7 8 9 10 11 12 13 14 15
000
FTUS43 KOAX 181120
TAFOFK
TAF
KOFK 181120Z 1812/1912 19007KT P6SM SCT250
     FM181500 24010KT P6SM BKN250
     FM181700 30014KT P6SM SCT250
     FM181800 34014G22KT P6SM SCT250
     FM182300 34009KT P6SM FEW250=

USA.gov is the U.S. government's official web portal to all federal, state and local government web resources and services.